Harvest Peace — V7VE7 — position and weather

sailwx.info

Track history (hours):
 
Tides and Currents Weather Stations Pressure Air Temp Water Temp Dewpoint Dewpoint Depression Visibility Wind Speed Wind Dir Waves Ship Positions

Harvest Peace

Last reported at 2017-Mar-04 13:32 UTC. Time now 2017-Mar-29 19:11 UTC.
Position N 16°11' W 062°50'.
Warning: this ship's position is 25 days out of date.

Length 225 m; draft 8.6 m.

Type: Cargo ship. MMSI: 538004103.

Date/timePositionNaut miles runAvg speedWind from/ knotsBaromVisibWave heightAir tempDewpointWater temp
2017-Mar-04 13:32N 16°11' W 062°50'1313.4
2017-Mar-04 12:34N 16°17' W 062°37'1312.6
2017-Mar-04 11:33N 16°22' W 062°25'1212.1
2017-Mar-04 10:33N 16°26' W 062°13'1211.9
2017-Mar-04 09:34N 16°31' W 062°02'1212.2
2017-Mar-04 08:33N 16°36' W 061°50'1212.1
2017-Mar-04 07:34N 16°40' W 061°39'1212.1
2017-Mar-04 06:34N 16°45' W 061°27'1212.3
2017-Mar-04 05:33N 16°51' W 061°16'1212.2
2017-Mar-04 04:34N 16°58' W 061°05'1211.9
2017-Mar-04 03:33N 17°04' W 060°54'  
Track history (hours):
 
Tides and Currents Weather Stations Pressure Air Temp Water Temp Dewpoint Dewpoint Depression Visibility Wind Speed Wind Dir Waves Ship Positions

Harvest Peace

Last reported at 2017-Mar-04 13:32 UTC. Time now 2017-Mar-29 19:11 UTC.
Position N 16°11' W 062°50'.
Warning: this ship's position is 25 days out of date.

Length 225 m; draft 8.6 m.

Type: Cargo ship. MMSI: 538004103.

Date/timePositionNaut miles runAvg speedWind from/ knotsBaromVisibWave heightAir tempDewpointWater temp
2017-Mar-04 13:32N 16°11' W 062°50'1313.4
2017-Mar-04 12:34N 16°17' W 062°37'1312.6
2017-Mar-04 11:33N 16°22' W 062°25'1212.1
2017-Mar-04 10:33N 16°26' W 062°13'1211.9
2017-Mar-04 09:34N 16°31' W 062°02'1212.2
2017-Mar-04 08:33N 16°36' W 061°50'1212.1
2017-Mar-04 07:34N 16°40' W 061°39'1212.1
2017-Mar-04 06:34N 16°45' W 061°27'1212.3
2017-Mar-04 05:33N 16°51' W 061°16'1212.2
2017-Mar-04 04:34N 16°58' W 061°05'1211.9
2017-Mar-04 03:33N 17°04' W 060°54'  

Dump ship's entire track history